Time;durP1;ratioP1;P1;durP2;ratioP2;P2;SDS_P1;SDS_P2;PMS_P1;PMS_P2;Temp;Humidity;BMP_temperature;BMP_pressure;BME280_temperature;BME280_humidity;BME280_pressure;Samples;Min_cycle;Max_cycle;Signal;HPM_P1;HPM_P2
2022/07/11 00:01:14;;;;;;;;;;;;;;;28.03;43.44;100501.08;105238;1300;62074;-81
2022/07/11 00:03:40;;;;;;;;;;;;;;;28.03;43.58;100505.79;105291;1298;62183;-81
2022/07/11 00:06:06;;;;;;;;;;;;;;;28.02;43.42;100503.27;105260;1299;62800;-81
2022/07/11 00:08:31;;;;;;;;;;;;;;;28.03;43.56;100499.81;105249;1300;62085;-81
2022/07/11 00:10:57;;;;;;;;;;;;;;;28.02;43.47;100501.72;105268;1299;62031;-81
2022/07/11 00:13:22;;;;;;;;;;;;;;;28.02;43.42;100497.50;105161;1300;62158;-81
2022/07/11 00:15:48;;;;;;;;;;;;;;;28.02;43.28;100496.96;105227;1300;62164;-81
2022/07/11 00:18:13;;;;;;;;;;;;;;;28.01;43.39;100495.98;105153;1300;62076;-81
2022/07/11 00:20:39;;;;;;;;;;;;;;;28.02;43.35;100498.65;105183;1300;62037;-81
2022/07/11 00:23:05;;;;;;;;;;;;;;;28.01;43.55;100497.47;105207;1302;62897;-81
2022/07/11 00:25:30;;;;;;;;;;;;;;;28.01;43.49;100497.80;105240;1299;62184;-82
2022/07/11 00:27:56;;;;;;;;;;;;;;;28.01;43.39;100507.54;105261;1299;62019;-81
2022/07/11 00:30:21;;;;;;;;;;;;;;;28.01;43.45;100509.37;105075;1300;72853;-81
2022/07/11 00:32:48;;;;;;;;;;;;;;;28.01;43.50;100508.16;105236;1299;62084;-81
2022/07/11 00:35:13;;;;;;;;;;;;;;;28.01;43.61;100503.64;105179;1300;62198;-81
2022/07/11 00:37:39;;;;;;;;;;;;;;;28.01;43.44;100502.04;105190;1299;62107;-81
2022/07/11 00:40:05;;;;;;;;;;;;;;;28.00;43.26;100501.33;105253;1298;60012;-81
2022/07/11 00:42:30;;;;;;;;;;;;;;;28.00;43.56;100507.65;105196;1300;62046;-81
2022/07/11 00:44:55;;;;;;;;;;;;;;;28.00;43.29;100507.50;105254;1299;62213;-81
2022/07/11 00:47:21;;;;;;;;;;;;;;;28.00;43.68;100507.52;105170;1300;62163;-81
2022/07/11 00:49:46;;;;;;;;;;;;;;;28.00;43.53;100507.34;105238;1299;62088;-81
2022/07/11 00:52:12;;;;;;;;;;;;;;;28.00;43.54;100512.05;105190;1299;62062;-81
2022/07/11 00:54:37;;;;;;;;;;;;;;;28.00;43.39;100512.95;105268;1300;61973;-81
2022/07/11 00:57:03;;;;;;;;;;;;;;;27.99;43.35;100511.95;105262;1299;75537;-81
2022/07/11 00:59:28;;;;;;;;;;;;;;;27.99;43.54;100509.21;105237;1298;62140;-81
2022/07/11 01:01:54;;;;;;;;;;;;;;;27.99;43.58;100509.40;105162;1299;62435;-81
2022/07/11 01:04:19;;;;;;;;;;;;;;;27.99;43.36;100506.89;105186;1299;62091;-81
2022/07/11 01:06:45;;;;;;;;;;;;;;;27.99;43.34;100501.63;105260;1299;62073;-81
2022/07/11 01:09:11;;;;;;;;;;;;;;;27.99;43.49;100505.09;105155;1299;76687;-81
2022/07/11 01:11:36;;;;;;;;;;;;;;;27.99;43.24;100508.17;105175;1300;62087;-81
2022/07/11 01:14:02;;;;;;;;;;;;;;;27.98;43.38;100511.29;105262;1300;62123;-81
2022/07/11 01:16:28;;;;;;;;;;;;;;;27.98;43.54;100516.05;105170;1300;62191;-81
2022/07/11 01:18:54;;;;;;;;;;;;;;;27.99;43.36;100522.30;105226;1298;62113;-81
2022/07/11 01:21:22;;;;;;;;;;;;;;;27.98;43.55;100521.60;105164;1300;62617;-81
2022/07/11 01:23:47;;;;;;;;;;;;;;;27.98;43.47;100525.95;105266;1299;62075;-81
2022/07/11 01:26:13;;;;;;;;;;;;;;;27.98;43.42;100524.89;105027;1299;62094;-81
2022/07/11 01:28:39;;;;;;;;;;;;;;;27.98;43.56;100522.77;105110;1302;62059;-81
2022/07/11 01:31:05;;;;;;;;;;;;;;;27.98;43.29;100522.39;105231;1302;62081;-81
2022/07/11 01:33:33;;;;;;;;;;;;;;;27.97;43.37;100521.20;105279;1299;62161;-81
2022/07/11 01:36:01;;;;;;;;;;;;;;;27.98;43.41;100522.92;105172;1300;62103;-81
2022/07/11 01:38:26;;;;;;;;;;;;;;;27.97;43.46;100525.16;105161;1300;72844;-81
2022/07/11 01:40:52;;;;;;;;;;;;;;;27.97;43.44;100528.42;105153;1300;62040;-81
2022/07/11 01:43:17;;;;;;;;;;;;;;;27.97;43.16;100530.45;105269;1300;62209;-81
2022/07/11 01:45:43;;;;;;;;;;;;;;;27.97;43.25;100530.82;105214;1300;62081;-81
2022/07/11 01:48:08;;;;;;;;;;;;;;;27.97;43.29;100531.33;105307;1299;62063;-81
2022/07/11 01:50:34;;;;;;;;;;;;;;;27.97;43.35;100533.91;105193;1299;62210;-81
2022/07/11 01:52:59;;;;;;;;;;;;;;;27.97;43.36;100526.31;105125;1300;62219;-81
2022/07/11 01:55:24;;;;;;;;;;;;;;;27.97;43.24;100524.48;105067;1300;62077;-81
2022/07/11 01:57:50;;;;;;;;;;;;;;;27.95;43.25;100524.07;105260;1300;62165;-81
2022/07/11 02:00:16;;;;;;;;;;;;;;;27.96;43.45;100525.29;105300;1300;62065;-81
2022/07/11 02:02:41;;;;;;;;;;;;;;;27.96;43.26;100526.38;105239;1300;62175;-81
2022/07/11 02:05:07;;;;;;;;;;;;;;;27.96;43.37;100531.63;105258;1300;62177;-81
2022/07/11 02:10:16;;;;;;;;;;;;;;;27.95;43.43;100530.07;104917;1303;62084;-81
2022/07/11 02:12:42;;;;;;;;;;;;;;;27.95;43.48;100533.19;105096;1303;62081;-81
2022/07/11 02:15:08;;;;;;;;;;;;;;;27.95;43.26;100531.22;105069;1303;62085;-81
2022/07/11 02:17:33;;;;;;;;;;;;;;;27.95;43.29;100532.86;105071;1303;62180;-81
2022/07/11 02:19:58;;;;;;;;;;;;;;;27.95;43.35;100535.19;105093;1303;62040;-81
2022/07/11 02:22:24;;;;;;;;;;;;;;;27.94;43.36;100534.67;104906;1303;61953;-81
2022/07/11 02:24:50;;;;;;;;;;;;;;;27.94;43.14;100535.41;105090;1303;62103;-81
2022/07/11 02:27:15;;;;;;;;;;;;;;;27.94;43.36;100538.88;105062;1303;62036;-81
2022/07/11 02:29:41;;;;;;;;;;;;;;;27.94;43.27;100545.18;104920;1303;62226;-81
2022/07/11 02:32:07;;;;;;;;;;;;;;;27.94;43.22;100548.32;105077;1303;62168;-81
2022/07/11 02:34:32;;;;;;;;;;;;;;;27.93;43.09;100548.47;105134;1303;62279;-81
2022/07/11 02:36:57;;;;;;;;;;;;;;;27.93;43.44;100550.48;105124;1303;62452;-81
2022/07/11 02:39:24;;;;;;;;;;;;;;;27.93;43.10;100553.40;105140;1300;62193;-81
2022/07/11 02:41:50;;;;;;;;;;;;;;;27.93;43.24;100553.77;105263;1299;62074;-81
2022/07/11 02:44:15;;;;;;;;;;;;;;;27.93;43.41;100553.77;105184;1300;62216;-81
2022/07/11 02:46:41;;;;;;;;;;;;;;;27.93;43.49;100558.08;105249;1300;62046;-81
2022/07/11 02:49:07;;;;;;;;;;;;;;;27.93;43.37;100560.86;105295;1300;62066;-81
2022/07/11 02:51:33;;;;;;;;;;;;;;;27.93;43.25;100564.11;105181;1300;76529;-81
2022/07/11 02:53:58;;;;;;;;;;;;;;;27.92;43.40;100564.85;105294;1300;62058;-81
2022/07/11 02:56:24;;;;;;;;;;;;;;;27.93;43.13;100570.28;105163;1300;62135;-81
2022/07/11 02:58:50;;;;;;;;;;;;;;;27.93;43.22;100578.42;105201;1300;62042;-82
2022/07/11 03:01:15;;;;;;;;;;;;;;;27.92;43.27;100585.84;105157;1302;62172;-81
2022/07/11 03:03:40;;;;;;;;;;;;;;;27.93;43.20;100592.85;105305;1299;62069;-81
2022/07/11 03:06:06;;;;;;;;;;;;;;;27.93;43.34;100594.64;105205;1302;62743;-81
2022/07/11 03:08:31;;;;;;;;;;;;;;;27.93;43.13;100602.80;105167;1300;62076;-81
2022/07/11 03:10:57;;;;;;;;;;;;;;;27.92;43.37;100603.58;105218;1300;62145;-81
2022/07/11 03:13:23;;;;;;;;;;;;;;;27.93;43.23;100608.43;104879;1302;62074;-81
2022/07/11 03:15:48;;;;;;;;;;;;;;;27.93;43.22;100610.56;105051;1303;62081;-81
2022/07/11 03:18:14;;;;;;;;;;;;;;;27.93;43.30;100612.77;104954;1303;62159;-81
2022/07/11 03:20:39;;;;;;;;;;;;;;;27.92;43.24;100610.08;105020;1303;62264;-81
2022/07/11 03:23:05;;;;;;;;;;;;;;;27.93;43.32;100614.00;104988;1303;62743;-81
2022/07/11 03:25:30;;;;;;;;;;;;;;;27.93;43.04;100607.14;105011;1303;62078;-81
2022/07/11 03:27:56;;;;;;;;;;;;;;;27.93;43.20;100611.82;104946;1303;62123;-81
2022/07/11 03:30:21;;;;;;;;;;;;;;;27.93;43.36;100618.54;104859;1303;62079;-81
2022/07/11 03:32:47;;;;;;;;;;;;;;;27.93;43.18;100624.63;104854;1302;62075;-81
2022/07/11 03:37:56;;;;;;;;;;;;;;;27.93;43.34;100624.84;105091;1303;75592;-81
2022/07/11 03:40:22;;;;;;;;;;;;;;;27.93;43.21;100629.52;105029;1303;62149;-81
2022/07/11 03:42:47;;;;;;;;;;;;;;;27.93;43.20;100630.23;104953;1303;62353;-81
2022/07/11 03:45:13;;;;;;;;;;;;;;;27.92;43.28;100632.13;105146;1299;62078;-81
2022/07/11 03:47:39;;;;;;;;;;;;;;;27.93;43.26;100635.02;105092;1300;62062;-81
2022/07/11 03:50:05;;;;;;;;;;;;;;;27.92;43.31;100634.13;105090;1302;76392;-81
2022/07/11 03:52:32;;;;;;;;;;;;;;;27.92;43.19;100636.88;105203;1300;62212;-81
2022/07/11 03:54:57;;;;;;;;;;;;;;;27.91;43.03;100638.77;105169;1300;62109;-81
2022/07/11 03:57:23;;;;;;;;;;;;;;;27.91;43.07;100640.83;105221;1298;62240;-81
2022/07/11 03:59:48;;;;;;;;;;;;;;;27.89;43.28;100642.21;105259;1299;62488;-81
2022/07/11 04:02:13;;;;;;;;;;;;;;;27.89;43.05;100640.64;105197;1300;62068;-81
2022/07/11 04:04:39;;;;;;;;;;;;;;;27.89;42.97;100641.22;105285;1299;62078;-81
2022/07/11 04:07:05;;;;;;;;;;;;;;;27.88;43.04;100639.18;105227;1299;62162;-81
2022/07/11 04:09:31;;;;;;;;;;;;;;;27.87;43.00;100638.90;105231;1299;62117;-81
2022/07/11 04:11:57;;;;;;;;;;;;;;;27.86;42.98;100639.11;105155;1302;62208;-81
2022/07/11 04:14:22;;;;;;;;;;;;;;;27.86;43.21;100636.96;105200;1300;62124;-81
2022/07/11 04:16:48;;;;;;;;;;;;;;;27.86;42.86;100637.38;105235;1299;62140;-81
2022/07/11 04:19:13;;;;;;;;;;;;;;;27.85;42.92;100637.80;105290;1299;62072;-81
2022/07/11 04:21:39;;;;;;;;;;;;;;;27.84;42.93;100635.90;105126;1300;62094;-81
2022/07/11 04:24:05;;;;;;;;;;;;;;;27.83;42.78;100635.65;105168;1300;62100;-81
2022/07/11 04:26:30;;;;;;;;;;;;;;;27.83;42.96;100636.57;105173;1300;62061;-81
2022/07/11 04:28:56;;;;;;;;;;;;;;;27.83;42.63;100636.80;105246;1299;62085;-82
2022/07/11 04:31:22;;;;;;;;;;;;;;;27.83;42.80;100635.02;105151;1302;62114;-82
2022/07/11 04:33:47;;;;;;;;;;;;;;;27.82;42.67;100633.77;105206;1300;62063;-82
2022/07/11 04:36:13;;;;;;;;;;;;;;;27.82;42.60;100635.46;105147;1302;76338;-82
2022/07/11 04:38:38;;;;;;;;;;;;;;;27.81;42.45;100635.91;105193;1300;62246;-82
2022/07/11 04:41:04;;;;;;;;;;;;;;;27.81;42.52;100639.50;105204;1302;62092;-82
2022/07/11 04:43:29;;;;;;;;;;;;;;;27.80;42.50;100640.52;105238;1300;62152;-81
2022/07/11 04:45:55;;;;;;;;;;;;;;;27.80;42.48;100639.80;105170;1301;62083;-81
2022/07/11 04:48:20;;;;;;;;;;;;;;;27.80;42.32;100636.75;105246;1300;62038;-81
2022/07/11 04:50:46;;;;;;;;;;;;;;;27.79;42.30;100646.54;105183;1300;62180;-81
2022/07/11 04:53:12;;;;;;;;;;;;;;;27.79;42.18;100647.69;105146;1300;62066;-81
2022/07/11 04:55:40;;;;;;;;;;;;;;;27.79;42.42;100651.31;105142;1300;62016;-81
2022/07/11 04:58:07;;;;;;;;;;;;;;;27.79;42.15;100654.02;105145;1300;62088;-81
2022/07/11 05:00:32;;;;;;;;;;;;;;;27.78;42.24;100656.06;105303;1300;62053;-81
2022/07/11 05:02:58;;;;;;;;;;;;;;;27.78;42.19;100658.84;105170;1302;62085;-81
2022/07/11 05:05:23;;;;;;;;;;;;;;;27.78;42.14;100660.27;105249;1299;62078;-81
2022/07/11 05:07:49;;;;;;;;;;;;;;;27.78;42.05;100664.77;105168;1300;62095;-81
2022/07/11 05:10:15;;;;;;;;;;;;;;;27.78;42.16;100663.35;105213;1300;62083;-81
2022/07/11 05:12:40;;;;;;;;;;;;;;;27.77;42.07;100663.21;105215;1302;62184;-81
2022/07/11 05:15:06;;;;;;;;;;;;;;;27.78;42.04;100666.27;105081;1303;62078;-81
2022/07/11 05:17:32;;;;;;;;;;;;;;;27.76;41.86;100663.98;105164;1302;61928;-81
2022/07/11 05:19:57;;;;;;;;;;;;;;;27.77;41.84;100663.40;105023;1302;62101;-81
2022/07/11 05:22:22;;;;;;;;;;;;;;;27.77;41.82;100667.92;105155;1300;62089;-81
2022/07/11 05:24:48;;;;;;;;;;;;;;;27.77;41.63;100669.55;105001;1302;62099;-82
2022/07/11 05:27:13;;;;;;;;;;;;;;;27.77;41.82;100667.95;105192;1301;62096;-81
2022/07/11 05:29:39;;;;;;;;;;;;;;;27.76;41.76;100663.82;105108;1303;62122;-81
2022/07/11 05:32:06;;;;;;;;;;;;;;;27.76;41.94;100667.67;105099;1300;62072;-81
2022/07/11 05:34:32;;;;;;;;;;;;;;;27.75;41.81;100668.41;105080;1300;62122;-82
2022/07/11 05:36:57;;;;;;;;;;;;;;;27.75;41.65;100670.81;105170;1300;62171;-81
2022/07/11 05:39:22;;;;;;;;;;;;;;;27.74;41.51;100670.51;105153;1302;62115;-81
2022/07/11 05:41:51;;;;;;;;;;;;;;;27.74;41.52;100674.23;104908;1301;62098;-81
2022/07/11 05:44:17;;;;;;;;;;;;;;;27.73;41.79;100673.79;105030;1301;75626;-81
2022/07/11 05:46:44;;;;;;;;;;;;;;;27.72;41.54;100676.02;105117;1300;61946;-81
2022/07/11 05:49:09;;;;;;;;;;;;;;;27.72;41.55;100675.16;105025;1300;61980;-81
2022/07/11 05:51:36;;;;;;;;;;;;;;;27.71;41.54;100679.33;105112;1302;62092;-81
2022/07/11 05:54:01;;;;;;;;;;;;;;;27.71;41.23;100683.88;105079;1302;62134;-81
2022/07/11 05:56:27;;;;;;;;;;;;;;;27.70;41.23;100681.08;105153;1302;62085;-81
2022/07/11 05:58:53;;;;;;;;;;;;;;;27.68;41.27;100684.22;105119;1301;62181;-81
2022/07/11 06:01:18;;;;;;;;;;;;;;;27.68;41.05;100691.45;105140;1302;62069;-81
2022/07/11 06:03:43;;;;;;;;;;;;;;;27.68;41.08;100701.71;104718;1303;62129;-81
2022/07/11 06:06:10;;;;;;;;;;;;;;;27.69;41.11;100703.10;104908;1302;62164;-81
2022/07/11 06:08:42;;;;;;;;;;;;;;;27.70;41.22;100704.27;105004;1300;61946;-81
2022/07/11 06:11:10;;;;;;;;;;;;;;;27.70;41.15;100701.16;105046;1302;62050;-81
2022/07/11 06:13:37;;;;;;;;;;;;;;;27.71;41.18;100702.89;105147;1302;74007;-81
2022/07/11 06:16:03;;;;;;;;;;;;;;;27.71;41.03;100700.01;105051;1302;76401;-81
2022/07/11 06:18:29;;;;;;;;;;;;;;;27.70;41.01;100702.78;105084;1302;61995;-81
2022/07/11 06:20:54;;;;;;;;;;;;;;;27.70;40.75;100703.55;105124;1302;62149;-81
2022/07/11 06:23:20;;;;;;;;;;;;;;;27.70;40.66;100705.72;105134;1302;62071;-81
2022/07/11 06:25:46;;;;;;;;;;;;;;;27.69;40.96;100704.86;105119;1301;62216;-81
2022/07/11 06:28:11;;;;;;;;;;;;;;;27.69;40.73;100710.64;104444;1301;1001008;-81
2022/07/11 06:30:37;;;;;;;;;;;;;;;27.68;40.79;100709.46;105211;1300;62097;-81
2022/07/11 06:33:03;;;;;;;;;;;;;;;27.68;40.55;100713.64;105244;1300;62058;-81
2022/07/11 06:35:28;;;;;;;;;;;;;;;27.68;40.44;100713.06;105210;1300;62040;-81
2022/07/11 06:37:56;;;;;;;;;;;;;;;27.69;40.60;100711.27;105157;1302;62181;-81
2022/07/11 06:40:23;;;;;;;;;;;;;;;27.68;40.49;100712.53;105136;1300;62177;-81
2022/07/11 06:42:49;;;;;;;;;;;;;;;27.68;40.47;100713.80;105167;1300;62110;-81
2022/07/11 06:45:14;;;;;;;;;;;;;;;27.68;40.43;100714.35;105110;1300;64405;-81
2022/07/11 06:47:40;;;;;;;;;;;;;;;27.69;40.45;100714.42;105210;1300;60857;-81
2022/07/11 06:50:06;;;;;;;;;;;;;;;27.71;40.20;100722.08;105212;1299;63128;-81
2022/07/11 06:52:31;;;;;;;;;;;;;;;27.71;40.11;100723.30;105178;1302;62085;-81
2022/07/11 06:54:58;;;;;;;;;;;;;;;27.71;40.12;100722.91;105109;1300;62523;-80
2022/07/11 06:57:23;;;;;;;;;;;;;;;27.71;40.12;100720.22;105148;1299;61966;-81
2022/07/11 06:59:49;;;;;;;;;;;;;;;27.73;40.21;100724.20;105124;1300;62212;-81
2022/07/11 07:02:14;;;;;;;;;;;;;;;27.74;39.89;100725.49;105161;1300;62060;-81
2022/07/11 07:04:40;;;;;;;;;;;;;;;27.75;40.02;100725.63;105193;1299;62292;-81
2022/07/11 07:07:05;;;;;;;;;;;;;;;27.74;39.80;100727.83;105123;1300;62090;-81
2022/07/11 07:09:31;;;;;;;;;;;;;;;27.75;39.91;100724.55;105207;1299;62166;-81
2022/07/11 07:11:56;;;;;;;;;;;;;;;27.75;39.71;100725.23;105228;1300;63238;-81
2022/07/11 07:14:22;;;;;;;;;;;;;;;27.76;39.68;100724.96;105185;1300;62036;-80
2022/07/11 07:16:47;;;;;;;;;;;;;;;27.76;39.64;100722.94;105112;1300;63134;-80
2022/07/11 07:19:13;;;;;;;;;;;;;;;27.76;39.91;100728.20;105163;1300;62082;-81
2022/07/11 07:21:39;;;;;;;;;;;;;;;27.77;39.60;100730.14;104921;1302;72286;-81
2022/07/11 07:24:05;;;;;;;;;;;;;;;27.78;39.62;100725.35;105160;1301;62111;-80
2022/07/11 07:26:31;;;;;;;;;;;;;;;27.78;39.47;100725.70;105127;1299;61986;-80
2022/07/11 07:28:56;;;;;;;;;;;;;;;27.79;39.57;100729.90;105191;1299;62976;-80
2022/07/11 07:31:22;;;;;;;;;;;;;;;27.80;39.52;100732.20;105094;1298;62200;-80
2022/07/11 07:33:48;;;;;;;;;;;;;;;27.81;39.43;100735.20;105105;1299;62026;-80
2022/07/11 07:36:14;;;;;;;;;;;;;;;27.82;39.41;100739.21;105253;1299;62724;-80
2022/07/11 07:38:41;;;;;;;;;;;;;;;27.82;39.26;100739.98;105200;1299;62113;-80
2022/07/11 07:41:06;;;;;;;;;;;;;;;27.82;39.39;100745.55;105170;1302;61960;-80
2022/07/11 07:43:32;;;;;;;;;;;;;;;27.82;39.56;100744.78;105106;1302;62076;-80
2022/07/11 07:45:58;;;;;;;;;;;;;;;27.82;39.58;100743.52;105062;1300;62194;-80
2022/07/11 07:48:23;;;;;;;;;;;;;;;27.83;39.28;100748.17;105132;1299;62050;-80
2022/07/11 07:50:49;;;;;;;;;;;;;;;27.83;39.33;100747.41;105187;1300;62232;-80
2022/07/11 07:53:15;;;;;;;;;;;;;;;27.83;39.50;100749.77;105171;1302;62090;-80
2022/07/11 07:55:40;;;;;;;;;;;;;;;27.82;39.21;100747.15;104931;1302;62190;-80
2022/07/11 07:58:06;;;;;;;;;;;;;;;27.82;39.32;100746.77;105114;1302;62090;-80
2022/07/11 08:03:16;;;;;;;;;;;;;;;27.82;39.23;100744.30;105174;1300;62294;-80
2022/07/11 08:05:41;;;;;;;;;;;;;;;27.81;39.24;100744.73;105084;1302;62132;-80
2022/07/11 08:08:07;;;;;;;;;;;;;;;27.81;39.25;100742.80;105130;1299;62180;-80
2022/07/11 08:13:36;;;;;;;;;;;;;;;27.81;39.36;100737.88;105129;1299;62104;-80
2022/07/11 08:16:12;;;;;;;;;;;;;;;27.81;39.41;100738.00;105049;1302;73682;-81
2022/07/11 08:18:37;;;;;;;;;;;;;;;27.82;39.18;100731.29;105002;1302;76369;-81
2022/07/11 08:21:03;;;;;;;;;;;;;;;27.82;39.22;100728.91;104977;1301;62203;-81
2022/07/11 08:23:29;;;;;;;;;;;;;;;27.81;39.06;100727.93;104972;1302;60507;-81
2022/07/11 08:25:55;;;;;;;;;;;;;;;27.80;39.16;100728.19;104970;1301;61909;-81
2022/07/11 08:28:20;;;;;;;;;;;;;;;27.80;39.15;100726.95;105052;1300;62177;-81
2022/07/11 08:30:46;;;;;;;;;;;;;;;27.81;39.24;100727.73;104971;1302;62217;-81
2022/07/11 08:33:12;;;;;;;;;;;;;;;27.82;39.09;100732.13;105082;1300;62079;-81
2022/07/11 08:35:38;;;;;;;;;;;;;;;27.82;39.11;100731.02;105063;1302;62084;-81
2022/07/11 08:38:18;;;;;;;;;;;;;;;27.82;38.96;100732.27;104858;1302;62191;-81
2022/07/11 08:40:44;;;;;;;;;;;;;;;27.82;39.08;100729.83;105025;1299;75614;-81
2022/07/11 08:43:13;;;;;;;;;;;;;;;27.82;38.65;100731.39;104901;1299;62046;-81
2022/07/11 08:45:39;;;;;;;;;;;;;;;27.82;38.79;100731.80;105074;1299;60431;-81
2022/07/11 08:48:05;;;;;;;;;;;;;;;27.83;38.51;100728.27;104916;1301;62139;-81
2022/07/11 08:53:33;;;;;;;;;;;;;;;27.83;38.71;100717.54;105077;1300;61922;-80
2022/07/11 08:55:59;;;;;;;;;;;;;;;27.84;38.47;100716.02;105109;1302;61973;-80
2022/07/11 08:58:26;;;;;;;;;;;;;;;27.84;38.59;100714.02;104837;1302;62204;-81
2022/07/11 09:00:51;;;;;;;;;;;;;;;27.84;38.59;100713.64;105020;1299;61948;-80
2022/07/11 09:03:17;;;;;;;;;;;;;;;27.85;38.40;100708.02;105046;1302;62148;-81
2022/07/11 09:05:43;;;;;;;;;;;;;;;27.85;38.47;100708.70;104998;1299;62060;-81
2022/07/11 09:08:09;;;;;;;;;;;;;;;27.85;38.29;100707.75;104724;1302;61910;-81
2022/07/11 09:10:35;;;;;;;;;;;;;;;27.86;38.36;100705.66;104852;1300;62104;-81
2022/07/11 09:13:04;;;;;;;;;;;;;;;27.87;38.32;100701.42;104911;1302;75557;-81
2022/07/11 09:15:33;;;;;;;;;;;;;;;27.87;38.30;100703.20;104992;1299;61963;-81
2022/07/11 09:17:59;;;;;;;;;;;;;;;27.88;38.31;100702.83;104954;1302;61964;-81
2022/07/11 09:20:25;;;;;;;;;;;;;;;27.88;38.09;100697.36;104959;1302;62030;-81
2022/07/11 09:25:43;;;;;;;;;;;;;;;27.88;38.08;100694.95;104908;1300;61855;-81
2022/07/11 09:28:09;;;;;;;;;;;;;;;27.89;37.83;100693.30;104989;1300;60887;-81
2022/07/11 09:30:39;;;;;;;;;;;;;;;27.88;38.19;100689.54;104976;1300;62213;-81
2022/07/11 09:33:12;;;;;;;;;;;;;;;27.88;38.06;100686.48;105045;1299;76535;-83
2022/07/11 09:35:38;;;;;;;;;;;;;;;27.87;37.89;100688.45;105375;1300;61966;-83
2022/07/11 09:38:04;;;;;;;;;;;;;;;27.88;38.04;100691.43;105035;1299;63674;-83
2022/07/11 09:40:30;;;;;;;;;;;;;;;27.88;37.91;100692.79;104975;1299;62202;-83
2022/07/11 09:42:56;;;;;;;;;;;;;;;27.88;37.69;100695.13;104959;1300;62085;-83
2022/07/11 09:45:24;;;;;;;;;;;;;;;27.88;37.76;100692.24;105090;1299;62167;-83
2022/07/11 09:47:51;;;;;;;;;;;;;;;27.87;37.63;100690.41;105051;1299;61927;-81
2022/07/11 09:50:22;;;;;;;;;;;;;;;27.87;37.77;100684.95;105071;1300;72959;-81
2022/07/11 09:53:02;;;;;;;;;;;;;;;27.87;37.50;100682.61;105095;1299;75732;-81
2022/07/11 09:55:28;;;;;;;;;;;;;;;27.87;37.66;100681.55;105114;1299;62065;-81
2022/07/11 09:57:53;;;;;;;;;;;;;;;27.87;37.43;100682.44;105095;1299;63224;-81
2022/07/11 10:00:22;;;;;;;;;;;;;;;27.86;37.55;100684.52;105046;1302;62070;-81
2022/07/11 10:02:47;;;;;;;;;;;;;;;27.86;37.41;100683.98;105115;1302;75564;-81
2022/07/11 10:05:13;;;;;;;;;;;;;;;27.86;37.23;100691.07;105179;1300;63069;-81
2022/07/11 10:07:39;;;;;;;;;;;;;;;27.86;37.22;100689.83;105071;1300;60638;-81
2022/07/11 10:10:05;;;;;;;;;;;;;;;27.85;37.00;100694.20;104892;1300;62111;-81
2022/07/11 10:12:32;;;;;;;;;;;;;;;27.85;37.23;100697.81;105038;1300;63502;-81
2022/07/11 10:15:06;;;;;;;;;;;;;;;27.85;37.04;100694.08;104934;1302;62098;-81
2022/07/11 10:17:47;;;;;;;;;;;;;;;27.84;37.02;100687.06;105142;1299;62051;-81
2022/07/11 10:20:20;;;;;;;;;;;;;;;27.85;37.15;100691.36;104997;1302;72614;-82
2022/07/11 10:23:08;;;;;;;;;;;;;;;27.84;37.09;100693.02;105107;1301;75487;-81
2022/07/11 10:25:37;;;;;;;;;;;;;;;27.84;37.12;100692.48;105060;1302;61930;-81
2022/07/11 10:28:21;;;;;;;;;;;;;;;27.84;37.04;100689.77;105117;1302;62756;-81
2022/07/11 10:30:51;;;;;;;;;;;;;;;27.84;37.13;100691.95;105113;1301;73986;-81
2022/07/11 10:33:17;;;;;;;;;;;;;;;27.83;36.89;100696.41;105083;1300;76033;-81
2022/07/11 10:35:44;;;;;;;;;;;;;;;27.83;36.82;100691.55;104883;1299;62202;-81
2022/07/11 10:38:09;;;;;;;;;;;;;;;27.82;37.05;100690.50;105002;1302;62054;-81
2022/07/11 10:40:50;;;;;;;;;;;;;;;27.83;36.82;100688.67;104934;1302;62114;-81
2022/07/11 10:43:21;;;;;;;;;;;;;;;27.83;36.90;100691.02;104981;1300;76877;-81
2022/07/11 10:46:00;;;;;;;;;;;;;;;27.83;36.81;100689.42;105061;1299;63444;-80
2022/07/11 10:48:26;;;;;;;;;;;;;;;27.83;36.68;100688.30;104982;1299;61859;-81
2022/07/11 10:51:15;;;;;;;;;;;;;;;27.83;36.76;100688.07;104894;1299;62200;-81
2022/07/11 10:53:48;;;;;;;;;;;;;;;27.83;36.81;100686.28;104919;1299;76350;-81
2022/07/11 10:56:21;;;;;;;;;;;;;;;27.84;36.93;100682.79;104859;1300;62117;-81
2022/07/11 10:58:47;;;;;;;;;;;;;;;27.84;36.64;100680.62;105450;1299;62027;-81
2022/07/11 11:01:16;;;;;;;;;;;;;;;27.84;36.87;100680.17;104963;1300;62180;-81
2022/07/11 11:03:42;;;;;;;;;;;;;;;27.85;36.50;100676.15;105130;1299;75699;-81
2022/07/11 11:06:08;;;;;;;;;;;;;;;27.86;36.63;100676.27;105165;1299;61652;-81
2022/07/11 11:08:37;;;;;;;;;;;;;;;27.86;36.74;100678.00;105051;1302;62072;-81
2022/07/11 11:11:03;;;;;;;;;;;;;;;27.87;36.66;100678.26;104961;1299;73814;-81
2022/07/11 11:13:29;;;;;;;;;;;;;;;27.87;36.60;100673.36;104963;1302;61927;-81
2022/07/11 11:15:55;;;;;;;;;;;;;;;27.88;36.51;100672.55;104956;1299;62088;-81
2022/07/11 11:18:27;;;;;;;;;;;;;;;27.89;36.56;100671.54;104902;1302;62054;-81
2022/07/11 11:21:15;;;;;;;;;;;;;;;27.90;36.43;100668.77;104955;1299;72765;-81
2022/07/11 11:23:42;;;;;;;;;;;;;;;27.91;36.40;100667.04;104863;1299;76792;-81
2022/07/11 11:26:11;;;;;;;;;;;;;;;27.92;36.68;100666.40;105101;1299;62769;-81
2022/07/11 11:28:37;;;;;;;;;;;;;;;27.92;36.62;100662.37;105132;1299;62168;-81
2022/07/11 11:31:03;;;;;;;;;;;;;;;27.93;36.53;100664.10;105045;1299;62129;-81
2022/07/11 11:33:29;;;;;;;;;;;;;;;27.93;36.52;100660.27;104977;1298;62146;-81
2022/07/11 11:36:15;;;;;;;;;;;;;;;27.94;36.65;100658.42;104987;1299;62091;-80
2022/07/11 11:38:40;;;;;;;;;;;;;;;27.94;36.61;100656.01;105715;1298;62081;-83
2022/07/11 11:41:06;;;;;;;;;;;;;;;27.96;36.62;100655.89;104972;1299;63789;-83
2022/07/11 11:43:32;;;;;;;;;;;;;;;27.96;36.81;100657.27;105005;1299;62165;-80
2022/07/11 11:45:57;;;;;;;;;;;;;;;27.97;36.80;100655.23;105037;1299;62044;-80
2022/07/11 11:48:49;;;;;;;;;;;;;;;27.97;36.67;100654.30;105194;1300;62059;-80
2022/07/11 11:51:15;;;;;;;;;;;;;;;27.97;36.71;100657.01;105138;1302;61950;-80
2022/07/11 11:53:45;;;;;;;;;;;;;;;27.98;36.88;100660.00;105142;1299;62025;-80
2022/07/11 11:56:29;;;;;;;;;;;;;;;27.98;36.38;100657.65;105145;1302;75602;-81
2022/07/11 11:59:05;;;;;;;;;;;;;;;27.98;36.40;100652.58;105218;1299;61946;-80
2022/07/11 12:01:31;;;;;;;;;;;;;;;27.98;36.30;100649.17;105203;1299;61986;-80
2022/07/11 12:03:57;;;;;;;;;;;;;;;27.98;36.41;100646.27;105068;1302;62015;-80
2022/07/11 12:06:29;;;;;;;;;;;;;;;27.98;36.58;100650.09;105208;1299;62248;-81
2022/07/11 12:09:03;;;;;;;;;;;;;;;27.97;36.53;100646.36;105140;1299;61976;-80
2022/07/11 12:11:29;;;;;;;;;;;;;;;27.98;36.69;100656.60;105056;1299;62187;-80
2022/07/11 12:13:55;;;;;;;;;;;;;;;27.98;36.61;100650.64;105012;1300;62171;-80
2022/07/11 12:16:39;;;;;;;;;;;;;;;27.97;36.43;100648.30;105168;1299;62089;-80
2022/07/11 12:19:06;;;;;;;;;;;;;;;27.97;36.51;100653.05;105213;1299;62082;-80
2022/07/11 12:21:32;;;;;;;;;;;;;;;27.97;36.51;100648.70;105268;1299;62084;-80
2022/07/11 12:23:58;;;;;;;;;;;;;;;27.97;36.50;100649.45;105208;1299;62318;-80
2022/07/11 12:26:25;;;;;;;;;;;;;;;27.97;36.26;100648.54;105211;1299;61951;-80
2022/07/11 12:29:27;;;;;;;;;;;;;;;27.97;36.39;100645.82;105182;1299;62101;-80
2022/07/11 12:31:56;;;;;;;;;;;;;;;27.97;36.14;100647.64;104562;1308;62779;-81
2022/07/11 12:34:22;;;;;;;;;;;;;;;27.97;36.44;100642.73;104609;1308;72719;-81
2022/07/11 12:36:48;;;;;;;;;;;;;;;27.97;36.49;100640.15;104582;1307;62100;-81
2022/07/11 12:39:26;;;;;;;;;;;;;;;27.98;36.30;100641.04;104447;1308;62108;-80
2022/07/11 12:41:52;;;;;;;;;;;;;;;27.99;36.59;100639.70;104380;1307;62223;-80